Time;durP1;ratioP1;P1;durP2;ratioP2;P2;SDS_P1;SDS_P2;PMS_P1;PMS_P2;Temp;Humidity;BMP_temperature;BMP_pressure;BME280_temperature;BME280_humidity;BME280_pressure;Samples;Min_cycle;Max_cycle;Signal;HPM_P1;HPM_P2
2022/01/27 00:02:01;;;;;;;25.50;12.03;;;4.30;99.90;;;;;;6245832;23;20196;-70
2022/01/27 00:04:35;;;;;;;24.17;11.73;;;4.40;99.90;;;;;;6245780;23;20244;-71
2022/01/27 00:07:02;;;;;;;23.80;11.20;;;4.40;99.90;;;;;;6219238;23;20182;-71
2022/01/27 00:09:44;;;;;;;23.40;11.33;;;4.40;74.20;;;;;;6245374;23;20159;-71
2022/01/27 00:12:14;;;;;;;23.93;11.13;;;4.40;4.20;;;;;;6245956;23;20648;-71
2022/01/27 00:14:46;;;;;;;22.47;10.93;;;4.40;1.00;;;;;;6246129;23;20261;-70
2022/01/27 00:17:15;;;;;;;24.00;10.77;;;4.40;1.00;;;;;;6246637;23;20162;-71
2022/01/27 00:19:42;;;;;;;22.73;10.07;;;4.50;1.00;;;;;;6245173;23;20185;-71
2022/01/27 00:22:09;;;;;;;24.07;10.43;;;4.50;1.00;;;;;;6245538;23;20163;-70
2022/01/27 00:24:37;;;;;;;22.27;10.03;;;4.50;1.00;;;;;;6245330;23;20633;-71
2022/01/27 00:27:04;;;;;;;21.70;11.53;;;4.50;1.00;;;;;;6246184;23;20468;-71
2022/01/27 00:29:31;;;;;;;22.83;10.97;;;4.50;1.00;;;;;;6245728;23;20163;-71
2022/01/27 00:31:58;;;;;;;21.93;10.60;;;4.50;1.00;;;;;;6246651;23;20160;-70
2022/01/27 00:34:25;;;;;;;23.77;10.40;;;4.50;1.00;;;;;;6244892;23;20608;-70
2022/01/27 00:36:52;;;;;;;19.67;9.70;;;4.50;1.00;;;;;;6246170;23;20162;-71
2022/01/27 00:39:19;;;;;;;20.70;10.40;;;4.50;1.00;;;;;;6245659;23;20197;-70
2022/01/27 00:41:47;;;;;;;20.07;9.30;;;4.50;1.00;;;;;;6245904;23;20159;-71
2022/01/27 00:44:14;;;;;;;22.40;10.10;;;4.60;1.00;;;;;;6244786;23;20163;-71
2022/01/27 00:46:42;;;;;;;20.30;11.03;;;4.60;1.00;;;;;;6245730;23;20165;-71
2022/01/27 00:49:08;;;;;;;22.33;10.70;;;4.50;1.00;;;;;;6245308;23;20204;-71
2022/01/27 00:51:38;;;;;;;23.87;12.00;;;4.50;1.00;;;;;;6245945;23;20590;-70
2022/01/27 00:54:08;;;;;;;23.87;11.87;;;4.50;1.00;;;;;;6245329;23;20170;-71
2022/01/27 00:56:44;;;;;;;23.90;11.57;;;4.50;1.00;;;;;;6245585;23;20166;-70
2022/01/27 01:02:04;;;;;;;22.73;11.30;;;4.50;1.00;;;;;;6244834;23;20600;-71
2022/01/27 01:04:35;;;;;;;22.53;10.83;;;4.50;1.00;;;;;;6245087;23;20174;-79
2022/01/27 01:07:02;;;;;;;21.90;10.40;;;4.50;1.00;;;;;;6245020;23;20237;-80
2022/01/27 01:15:16;;;;;;;21.63;10.43;;;4.60;1.00;;;;;;6245852;23;20529;-80
2022/01/27 01:17:57;;;;;;;20.57;10.57;;;4.60;1.00;;;;;;6245504;23;20657;-80
2022/01/27 01:20:36;;;;;;;20.53;9.63;;;4.60;1.00;;;;;;6217609;23;20225;-80
2022/01/27 01:34:14;;;;;;;17.00;7.97;;;4.60;1.00;;;;;;6229404;23;20613;-80
2022/01/27 01:36:53;;;;;;;18.13;8.83;;;4.50;1.00;;;;;;6245814;23;20608;-80
2022/01/27 01:39:20;;;;;;;16.50;8.03;;;4.50;1.00;;;;;;6217974;23;20240;-80
2022/01/27 01:41:47;;;;;;;16.87;8.23;;;4.60;1.00;;;;;;6245669;23;20612;-80
2022/01/27 01:44:14;;;;;;;17.23;8.20;;;4.50;1.00;;;;;;6244804;23;20163;-80
2022/01/27 01:46:42;;;;;;;16.53;8.67;;;4.50;1.00;;;;;;6245617;23;20165;-80
2022/01/27 01:49:09;;;;;;;20.93;9.80;;;4.60;1.00;;;;;;6245488;23;20834;-80
2022/01/27 01:51:39;;;;;;;22.40;10.03;;;4.50;1.00;;;;;;6244924;23;20167;-80
2022/01/27 01:54:07;;;;;;;20.93;9.37;;;4.50;1.00;;;;;;6245364;23;20166;-80
2022/01/27 01:56:35;;;;;;;21.17;11.53;;;4.50;1.00;;;;;;6245615;23;20190;-79
2022/01/27 01:59:02;;;;;;;23.17;11.40;;;4.50;1.00;;;;;;6245145;23;20505;-79
2022/01/27 02:01:29;;;;;;;25.80;12.23;;;4.50;1.00;;;;;;6245123;23;20158;-80
2022/01/27 02:03:59;;;;;;;24.23;12.47;;;4.50;1.00;;;;;;6244733;23;20163;-80
2022/01/27 02:06:32;;;;;;;25.27;12.47;;;4.50;1.00;;;;;;6245321;23;20245;-80
2022/01/27 02:09:17;;;;;;;27.13;14.07;;;4.50;1.00;;;;;;6245375;23;20170;-80
2022/01/27 02:20:00;;;;;;;36.23;16.70;;;4.50;1.00;;;;;;6243339;23;20437;-79
2022/01/27 02:22:28;;;;;;;33.03;16.97;;;4.50;1.00;;;;;;6244614;23;20159;-80
2022/01/27 02:24:55;;;;;;;33.50;17.07;;;4.40;1.00;;;;;;6244224;23;20159;-80
2022/01/27 02:27:22;;;;;;;39.13;19.20;;;4.40;1.00;;;;;;6243375;23;20159;-80
2022/01/27 02:29:50;;;;;;;35.53;17.93;;;4.50;99.90;;;;;;6243212;23;20161;-80
2022/01/27 02:32:19;;;;;;;35.30;18.73;;;4.40;99.90;;;;;;6242830;23;20158;-80
2022/01/27 02:34:47;;;;;;;38.13;19.07;;;4.40;99.90;;;;;;6243220;23;20159;-79
2022/01/27 02:37:15;;;;;;;34.23;17.77;;;4.40;99.90;;;;;;6243088;23;20158;-80
2022/01/27 02:39:42;;;;;;;37.97;19.90;;;4.40;99.90;;;;;;6243606;23;20186;-80
2022/01/27 02:42:16;;;;;;;39.60;19.37;;;4.40;99.90;;;;;;6244355;23;20158;-79
2022/01/27 02:44:52;;;;;;;35.97;18.70;;;4.40;44.70;;;;;;6243564;23;20159;-80
2022/01/27 02:47:20;;;;;;;40.10;20.23;;;4.50;1.00;;;;;;6244101;23;20162;-79
2022/01/27 02:49:47;;;;;;;43.03;21.07;;;4.50;1.00;;;;;;6243028;23;20154;-79
2022/01/27 02:52:16;;;;;;;38.63;20.17;;;4.50;1.00;;;;;;6243677;23;20163;-80
2022/01/27 02:54:44;;;;;;;45.47;23.07;;;4.50;1.00;;;;;;6243841;23;20479;-80
2022/01/27 02:57:11;;;;;;;45.60;22.87;;;4.50;1.00;;;;;;6243679;23;20681;-79
2022/01/27 02:59:38;;;;;;;44.93;21.97;;;4.50;1.00;;;;;;6243421;23;20182;-80
2022/01/27 03:02:05;;;;;;;46.73;23.97;;;4.50;1.00;;;;;;6244309;23;20165;-80
2022/01/27 03:04:33;;;;;;;44.20;23.10;;;4.50;1.00;;;;;;6244062;23;20495;-80
2022/01/27 03:07:03;;;;;;;46.47;24.37;;;4.50;1.00;;;;;;6243034;23;20162;-80
2022/01/27 03:09:31;;;;;;;45.10;23.53;;;4.50;1.00;;;;;;6244013;23;20447;-80
2022/01/27 03:12:00;;;;;;;47.93;24.07;;;4.50;1.00;;;;;;6243797;23;20165;-80
2022/01/27 03:14:29;;;;;;;48.43;23.83;;;4.40;1.00;;;;;;6243117;23;20249;-79
2022/01/27 03:16:58;;;;;;;50.97;25.10;;;4.50;99.90;;;;;;6244118;23;20220;-80
2022/01/27 03:19:26;;;;;;;53.20;26.77;;;4.40;99.90;;;;;;6243560;23;20187;-80
2022/01/27 03:21:53;;;;;;;51.93;26.23;;;4.40;99.90;;;;;;6243204;23;20586;-80
2022/01/27 03:24:20;;;;;;;53.30;25.93;;;4.40;99.90;;;;;;6243633;23;20241;-80
2022/01/27 03:26:49;;;;;;;50.70;25.77;;;4.40;93.80;;;;;;6243595;23;20165;-79
2022/01/27 03:29:17;;;;;;;53.20;27.07;;;4.40;1.00;;;;;;6242934;23;20155;-79
2022/01/27 03:31:44;;;;;;;56.13;26.47;;;4.40;1.00;;;;;;6243344;23;20240;-80
2022/01/27 03:34:11;;;;;;;50.70;27.17;;;4.40;1.00;;;;;;6242572;23;20163;-79
2022/01/27 03:36:38;;;;;;;51.30;25.87;;;4.40;1.00;;;;;;6244265;23;20158;-79
2022/01/27 03:39:05;;;;;;;49.53;25.33;;;4.40;99.90;;;;;;6242087;23;20550;-80
2022/01/27 03:41:34;;;;;;;54.47;27.43;;;4.50;72.80;;;;;;6243128;23;20217;-79
2022/01/27 03:44:03;;;;;;;51.33;27.90;;;4.40;99.90;;;;;;6243453;23;20166;-78
2022/01/27 03:46:30;;;;;;;54.90;28.60;;;4.40;1.00;;;;;;6244906;23;20159;-78
2022/01/27 03:48:57;;;;;;;54.40;28.47;;;4.40;1.00;;;;;;6245929;23;20521;-78
2022/01/27 03:51:24;;;;;;;51.13;26.73;;;4.40;1.00;;;;;;6245888;23;20729;-78
2022/01/27 03:53:51;;;;;;;52.30;26.90;;;4.30;99.90;;;;;;6245994;23;20166;-78
2022/01/27 03:56:18;;;;;;;46.80;23.77;;;4.30;99.90;;;;;;6245929;23;20159;-79
2022/01/27 03:58:44;;;;;;;50.43;26.80;;;4.30;11.50;;;;;;6245986;23;20194;-79
2022/01/27 04:01:13;;;;;;;51.80;28.67;;;4.40;99.90;;;;;;6246051;23;20478;-79
2022/01/27 04:03:40;;;;;;;54.80;28.50;;;4.30;99.90;;;;;;6246331;23;20604;-79
2022/01/27 04:06:08;;;;;;;54.77;29.07;;;4.30;99.90;;;;;;6246103;23;20217;-80
2022/01/27 04:08:37;;;;;;;53.37;27.47;;;4.30;99.90;;;;;;6246431;23;20548;-79
2022/01/27 04:11:05;;;;;;;50.07;25.97;;;4.30;99.90;;;;;;6246109;23;20155;-79
2022/01/27 04:13:33;;;;;;;48.67;24.87;;;4.30;99.90;;;;;;6245670;23;20166;-78
2022/01/27 04:16:00;;;;;;;60.57;26.70;;;4.30;99.90;;;;;;6245506;23;20159;-78
2022/01/27 04:18:28;;;;;;;51.43;25.27;;;4.20;99.90;;;;;;6246075;23;20159;-78
2022/01/27 04:20:55;;;;;;;44.80;24.63;;;4.20;1.00;;;;;;6245707;23;20183;-78
2022/01/27 04:23:22;;;;;;;50.23;24.47;;;4.20;91.00;;;;;;6245985;23;20166;-78
2022/01/27 04:25:50;;;;;;;48.53;24.87;;;4.20;99.90;;;;;;6246398;23;20213;-78
2022/01/27 04:28:23;;;;;;;46.97;25.10;;;4.20;1.00;;;;;;6245682;23;20162;-78
2022/01/27 04:30:52;;;;;;;48.57;24.40;;;4.20;1.00;;;;;;6246145;23;20201;-78
2022/01/27 04:33:23;;;;;;;49.20;26.93;;;4.20;1.00;;;;;;6245156;23;20166;-78
2022/01/27 04:35:53;;;;;;;50.03;26.07;;;4.20;1.00;;;;;;6245848;23;20162;-70
2022/01/27 04:38:28;;;;;;;47.33;24.60;;;4.20;1.00;;;;;;6245822;23;20162;-69
2022/01/27 04:41:03;;;;;;;49.47;25.00;;;4.10;1.00;;;;;;6245428;23;20644;-69
2022/01/27 04:43:37;;;;;;;47.03;23.87;;;4.10;1.00;;;;;;6245722;23;20213;-69
2022/01/27 04:46:14;;;;;;;45.93;23.17;;;4.10;1.00;;;;;;6245583;23;20158;-69
2022/01/27 04:48:45;;;;;;;46.83;23.60;;;4.10;1.00;;;;;;6245411;23;20268;-69
2022/01/27 04:51:16;;;;;;;44.93;21.83;;;4.10;1.00;;;;;;6245889;23;20278;-69
2022/01/27 04:53:48;;;;;;;44.33;23.63;;;4.10;1.00;;;;;;6245359;23;20241;-69
2022/01/27 04:56:16;;;;;;;44.03;22.17;;;4.10;1.00;;;;;;6245431;23;20532;-69
2022/01/27 04:58:45;;;;;;;45.90;23.40;;;4.10;1.00;;;;;;6245579;23;20586;-69
2022/01/27 05:01:13;;;;;;;45.27;21.63;;;4.10;1.00;;;;;;6245541;23;20190;-69
2022/01/27 05:03:44;;;;;;;47.07;22.40;;;4.10;1.00;;;;;;6245768;23;20242;-69
2022/01/27 05:06:13;;;;;;;46.63;22.67;;;4.10;1.00;;;;;;6245429;23;20213;-69
2022/01/27 05:08:41;;;;;;;48.03;22.30;;;4.10;1.00;;;;;;6245171;23;20159;-69
2022/01/27 05:11:13;;;;;;;44.60;22.73;;;4.00;1.00;;;;;;6245493;23;20483;-69
2022/01/27 05:13:48;;;;;;;42.33;21.20;;;4.00;1.00;;;;;;6245206;23;20617;-69
2022/01/27 05:16:14;;;;;;;47.57;22.83;;;4.10;1.00;;;;;;6244954;23;20165;-69
2022/01/27 05:18:41;;;;;;;48.77;21.80;;;4.10;1.00;;;;;;6243916;23;20478;-69
2022/01/27 05:21:08;;;;;;;46.00;22.93;;;4.10;1.00;;;;;;6244088;23;20182;-69
2022/01/27 05:23:36;;;;;;;46.03;23.43;;;4.10;1.00;;;;;;6244664;23;20158;-69
2022/01/27 05:26:03;;;;;;;43.80;22.07;;;4.10;1.00;;;;;;6244037;23;20159;-70
2022/01/27 05:28:30;;;;;;;46.93;23.97;;;4.20;1.00;;;;;;6244308;23;20158;-69
2022/01/27 05:30:57;;;;;;;45.23;23.10;;;4.20;1.00;;;;;;6243892;23;20255;-69
2022/01/27 05:33:24;;;;;;;47.43;23.00;;;4.10;1.00;;;;;;6243077;23;20159;-69
2022/01/27 05:35:51;;;;;;;43.43;22.40;;;4.10;1.00;;;;;;6242371;23;20169;-68
2022/01/27 05:38:18;;;;;;;42.30;19.93;;;4.10;1.00;;;;;;6244713;23;20241;-69
2022/01/27 05:40:46;;;;;;;44.77;23.20;;;4.20;1.00;;;;;;6243689;23;20187;-69
2022/01/27 05:43:13;;;;;;;44.83;22.67;;;4.10;1.00;;;;;;6243493;23;20167;-68
2022/01/27 05:45:40;;;;;;;42.90;21.87;;;4.20;1.00;;;;;;6244234;23;20165;-69
2022/01/27 05:48:07;;;;;;;41.33;21.20;;;4.10;1.00;;;;;;6244390;23;20651;-69
2022/01/27 05:50:35;;;;;;;46.13;22.77;;;4.10;1.00;;;;;;6244637;23;20166;-69
2022/01/27 05:53:02;;;;;;;40.23;20.67;;;4.10;1.00;;;;;;6244815;23;20237;-69
2022/01/27 05:55:29;;;;;;;42.30;21.03;;;4.20;99.90;;;;;;6244495;23;20237;-69
2022/01/27 05:57:57;;;;;;;46.80;23.10;;;4.20;1.00;;;;;;6243744;23;20242;-69
2022/01/27 06:00:24;;;;;;;44.03;21.30;;;4.20;1.00;;;;;;6243434;23;20182;-69
2022/01/27 06:02:51;;;;;;;41.30;22.33;;;4.20;99.90;;;;;;6244866;23;20159;-69
2022/01/27 06:05:18;;;;;;;46.70;22.37;;;4.20;1.00;;;;;;6244483;23;20209;-69
2022/01/27 06:07:45;;;;;;;40.17;19.60;;;4.20;1.00;;;;;;6244422;23;20159;-69
2022/01/27 06:10:12;;;;;;;45.33;22.67;;;4.20;1.00;;;;;;6244682;23;20155;-69
2022/01/27 06:12:46;;;;;;;42.43;21.87;;;4.20;1.00;;;;;;6243909;23;20158;-68
2022/01/27 06:15:15;;;;;;;41.50;21.00;;;4.20;1.00;;;;;;6244705;23;20164;-68
2022/01/27 06:17:42;;;;;;;42.30;22.10;;;4.20;1.00;;;;;;6244428;23;20189;-69
2022/01/27 06:20:09;;;;;;;46.13;20.83;;;4.20;1.00;;;;;;6243588;23;20266;-69
2022/01/27 06:22:36;;;;;;;42.43;21.67;;;4.20;1.00;;;;;;6243634;23;20158;-69
2022/01/27 06:25:04;;;;;;;43.60;21.03;;;4.20;1.00;;;;;;6244267;23;20158;-69
2022/01/27 06:27:31;;;;;;;43.60;22.00;;;4.20;1.00;;;;;;6243786;23;20170;-69
2022/01/27 06:29:58;;;;;;;47.97;24.10;;;4.20;1.00;;;;;;6243591;23;20163;-69
2022/01/27 06:32:26;;;;;;;45.93;21.43;;;4.20;1.00;;;;;;6243254;23;20159;-69
2022/01/27 06:34:53;;;;;;;43.47;22.00;;;4.20;1.00;;;;;;6243155;23;20488;-69
2022/01/27 06:37:20;;;;;;;44.13;22.20;;;4.20;1.00;;;;;;6244707;23;20612;-71
2022/01/27 06:39:46;;;;;;;42.03;21.20;;;4.20;1.00;;;;;;6243828;23;20166;-69
2022/01/27 06:42:13;;;;;;;47.80;25.30;;;4.30;1.00;;;;;;6243119;23;20660;-69
2022/01/27 06:44:40;;;;;;;46.17;23.07;;;4.30;1.00;;;;;;6243673;23;20602;-69
2022/01/27 06:47:07;;;;;;;39.87;20.97;;;4.30;1.00;;;;;;6244083;23;20165;-69
2022/01/27 06:49:35;;;;;;;40.57;21.03;;;4.30;1.00;;;;;;6244635;23;20491;-68
2022/01/27 06:52:03;;;;;;;38.83;19.40;;;4.30;1.00;;;;;;6243881;23;20171;-68
2022/01/27 06:54:29;;;;;;;39.07;19.97;;;4.40;1.00;;;;;;6244270;23;20198;-69
2022/01/27 06:56:56;;;;;;;42.37;20.37;;;4.40;1.00;;;;;;6243401;23;20477;-69
2022/01/27 06:59:23;;;;;;;39.70;20.23;;;4.40;1.00;;;;;;6243525;23;20163;-69
2022/01/27 07:01:50;;;;;;;40.00;18.40;;;4.40;1.00;;;;;;6244647;23;20182;-69
2022/01/27 07:04:17;;;;;;;40.03;21.40;;;4.40;1.00;;;;;;6243903;23;20163;-69
2022/01/27 07:06:47;;;;;;;40.30;19.30;;;4.40;1.00;;;;;;6242737;23;20201;-68
2022/01/27 07:09:14;;;;;;;42.00;19.33;;;4.40;1.00;;;;;;6243095;23;20169;-69
2022/01/27 07:11:41;;;;;;;38.23;19.40;;;4.40;99.90;;;;;;6244178;23;20238;-69
2022/01/27 07:14:07;;;;;;;38.37;19.57;;;4.30;99.90;;;;;;6242571;23;20170;-69
2022/01/27 07:16:34;;;;;;;43.57;20.50;;;4.30;1.00;;;;;;6244011;23;20170;-69
2022/01/27 07:19:01;;;;;;;37.23;19.10;;;4.40;99.90;;;;;;6243335;23;20158;-69
2022/01/27 07:21:28;;;;;;;40.87;20.03;;;4.40;1.00;;;;;;6244336;23;20257;-69
2022/01/27 07:23:56;;;;;;;42.57;20.13;;;4.40;1.00;;;;;;6245073;23;20167;-69
2022/01/27 07:26:25;;;;;;;41.87;20.00;;;4.40;1.00;;;;;;6246176;23;20553;-68
2022/01/27 07:28:52;;;;;;;39.93;21.07;;;4.30;1.00;;;;;;6244442;23;20209;-69
2022/01/27 07:31:19;;;;;;;42.20;22.10;;;4.40;1.00;;;;;;6245745;23;20155;-69
2022/01/27 07:33:47;;;;;;;45.70;23.47;;;4.40;1.00;;;;;;6245635;23;20169;-69
2022/01/27 07:36:15;;;;;;;40.90;20.40;;;4.40;1.00;;;;;;6245194;23;20170;-69
2022/01/27 07:38:41;;;;;;;40.20;20.10;;;4.40;30.60;;;;;;6245918;23;20163;-69
2022/01/27 07:41:10;;;;;;;40.67;21.20;;;4.40;1.00;;;;;;6245655;23;20183;-69
2022/01/27 07:43:37;;;;;;;44.73;21.60;;;4.40;1.00;;;;;;6245716;23;20185;-69
2022/01/27 07:46:04;;;;;;;38.67;20.63;;;4.50;1.00;;;;;;6245430;23;20159;-69
2022/01/27 07:48:31;;;;;;;38.50;19.77;;;4.50;1.00;;;;;;6245089;23;20186;-69
2022/01/27 07:50:57;;;;;;;39.27;20.23;;;4.50;1.00;;;;;;6245655;23;20155;-68
2022/01/27 07:53:24;;;;;;;39.47;20.40;;;4.50;1.00;;;;;;6246138;23;20158;-69
2022/01/27 07:55:51;;;;;;;38.23;19.80;;;4.50;1.00;;;;;;6245727;23;20159;-69
2022/01/27 07:58:19;;;;;;;39.73;20.17;;;4.50;1.00;;;;;;6245849;23;20159;-69
2022/01/27 08:00:46;;;;;;;39.27;19.37;;;4.50;1.00;;;;;;6246110;23;20186;-69
2022/01/27 08:03:13;;;;;;;41.37;19.97;;;4.60;1.00;;;;;;6244596;23;20164;-69
2022/01/27 08:05:40;;;;;;;39.57;19.20;;;4.60;33.60;;;;;;6244483;23;20169;-69
2022/01/27 08:08:07;;;;;;;35.90;17.87;;;4.60;99.90;;;;;;6244669;23;20159;-69
2022/01/27 08:10:37;;;;;;;38.50;20.47;;;4.60;99.90;;;;;;6245302;23;20612;-73
2022/01/27 08:13:04;;;;;;;39.20;19.90;;;4.60;1.00;;;;;;6246102;23;20162;-73
2022/01/27 08:15:32;;;;;;;39.90;19.63;;;4.60;1.00;;;;;;6245335;23;20482;-73
2022/01/27 08:17:59;;;;;;;40.10;21.57;;;4.70;1.00;;;;;;6245260;23;20246;-73
2022/01/27 08:20:26;;;;;;;42.80;22.17;;;4.70;1.00;;;;;;6244457;23;20182;-70
2022/01/27 08:22:55;;;;;;;37.60;20.30;;;4.70;1.00;;;;;;6245814;23;20158;-69
2022/01/27 08:25:22;;;;;;;39.23;19.87;;;4.80;99.90;;;;;;6244741;23;20163;-76
2022/01/27 08:27:53;;;;;;;38.17;17.83;;;4.80;1.00;;;;;;6245075;23;20210;-70
2022/01/27 08:30:22;;;;;;;39.73;19.57;;;4.80;1.00;;;;;;6244904;23;20194;-70
2022/01/27 08:32:58;;;;;;;34.17;18.17;;;4.80;1.00;;;;;;6244931;23;20243;-70
2022/01/27 08:35:26;;;;;;;34.60;17.63;;;4.90;1.00;;;;;;6244022;23;20158;-70
2022/01/27 08:37:53;;;;;;;31.73;15.87;;;4.90;1.00;;;;;;6244991;23;20170;-70
2022/01/27 08:40:20;;;;;;;28.17;14.47;;;5.00;1.00;;;;;;6244997;23;20594;-70
2022/01/27 08:42:47;;;;;;;29.43;14.57;;;5.00;1.00;;;;;;6245171;23;20269;-70
2022/01/27 08:45:16;;;;;;;26.40;13.23;;;5.00;99.90;;;;;;6244531;23;20162;-70
2022/01/27 08:47:45;;;;;;;28.40;13.53;;;5.00;99.90;;;;;;6245662;23;20510;-70
2022/01/27 08:50:14;;;;;;;26.07;13.03;;;5.00;1.00;;;;;;6244680;23;20159;-70
2022/01/27 08:52:42;;;;;;;25.23;13.30;;;5.00;1.00;;;;;;6245176;23;20242;-70
2022/01/27 08:55:11;;;;;;;27.03;14.00;;;5.00;1.00;;;;;;6245334;23;20549;-70
2022/01/27 08:57:38;;;;;;;24.80;12.00;;;5.00;1.00;;;;;;6244868;23;20165;-70
2022/01/27 09:00:08;;;;;;;23.63;12.17;;;5.00;1.00;;;;;;6244331;23;20174;-70
2022/01/27 09:02:35;;;;;;;27.00;13.47;;;5.00;1.00;;;;;;6245306;23;20262;-70
2022/01/27 09:05:02;;;;;;;22.83;12.70;;;5.00;1.00;;;;;;6245272;23;20162;-70
2022/01/27 09:07:30;;;;;;;22.80;11.87;;;5.10;1.00;;;;;;6245126;23;20238;-70
2022/01/27 09:09:57;;;;;;;22.40;11.73;;;5.10;1.00;;;;;;6243882;23;20162;-70
2022/01/27 09:12:24;;;;;;;21.30;11.67;;;5.10;1.00;;;;;;6243780;23;20158;-70
2022/01/27 09:14:51;;;;;;;24.13;12.27;;;5.10;1.00;;;;;;6245300;23;20162;-70
2022/01/27 09:17:18;;;;;;;22.80;11.87;;;5.10;1.00;;;;;;6245506;23;20165;-70
2022/01/27 09:19:46;;;;;;;23.67;11.97;;;5.10;67.70;;;;;;6245484;23;20456;-70
2022/01/27 09:22:16;;;;;;;21.93;11.40;;;5.10;99.90;;;;;;6245098;23;20666;-70
2022/01/27 09:24:55;;;;;;;20.43;10.57;;;5.10;99.90;;;;;;6244857;23;20159;-70
2022/01/27 09:27:23;;;;;;;19.93;10.30;;;5.10;99.90;;;;;;6245528;23;20162;-70
2022/01/27 09:29:50;;;;;;;20.27;10.87;;;5.10;99.90;;;;;;6244702;23;20518;-70
2022/01/27 09:32:17;;;;;;;17.13;9.20;;;5.20;99.90;;;;;;6243560;23;20180;-71
2022/01/27 09:34:44;;;;;;;20.37;10.53;;;5.20;99.90;;;;;;6244394;23;20162;-71
2022/01/27 09:37:11;;;;;;;17.43;9.07;;;5.20;99.90;;;;;;6245342;23;20165;-71
2022/01/27 09:39:39;;;;;;;15.43;8.20;;;5.20;99.90;;;;;;6245405;23;20181;-71
2022/01/27 09:42:08;;;;;;;19.90;9.83;;;5.20;99.90;;;;;;6244666;23;20182;-70
2022/01/27 09:44:37;;;;;;;16.33;8.27;;;5.30;99.90;;;;;;6244262;23;20173;-71
2022/01/27 09:47:07;;;;;;;17.10;8.50;;;5.30;99.90;;;;;;6244172;23;20189;-71
2022/01/27 09:49:39;;;;;;;17.53;8.60;;;5.30;99.90;;;;;;6244751;23;20163;-71
2022/01/27 09:52:07;;;;;;;15.00;8.33;;;5.30;99.90;;;;;;6245110;23;20162;-71
2022/01/27 09:54:35;;;;;;;16.77;8.73;;;5.30;99.90;;;;;;6245134;23;20623;-71
2022/01/27 09:57:02;;;;;;;14.50;8.27;;;5.30;99.90;;;;;;6245289;23;20768;-71
2022/01/27 09:59:30;;;;;;;15.47;8.33;;;5.30;99.90;;;;;;6244981;23;20166;-71
2022/01/27 10:01:59;;;;;;;13.40;7.73;;;5.40;99.90;;;;;;6244490;23;20183;-71
2022/01/27 10:04:43;;;;;;;12.90;7.40;;;5.40;99.90;;;;;;6244677;23;20166;-71
2022/01/27 10:07:10;;;;;;;13.20;7.30;;;5.40;99.90;;;;;;6244821;23;20171;-71
2022/01/27 10:09:37;;;;;;;13.23;7.23;;;5.40;99.90;;;;;;6244653;23;20165;-71
2022/01/27 10:12:05;;;;;;;11.47;6.80;;;5.40;99.90;;;;;;6245014;23;20638;-71
2022/01/27 10:14:37;;;;;;;12.30;6.93;;;5.50;99.90;;;;;;6244637;23;20159;-71
2022/01/27 10:17:08;;;;;;;11.83;6.77;;;5.50;99.90;;;;;;6244566;23;20202;-71
2022/01/27 10:19:36;;;;;;;10.07;5.60;;;5.50;99.90;;;;;;6245064;23;20162;-71
2022/01/27 10:22:05;;;;;;;12.57;6.90;;;5.50;99.90;;;;;;6244522;23;20193;-71
2022/01/27 10:24:34;;;;;;;11.50;6.33;;;5.50;99.90;;;;;;6244397;23;20158;-71
2022/01/27 10:27:27;;;;;;;13.90;6.70;;;5.60;99.90;;;;;;6244932;23;20194;-70
2022/01/27 10:32:49;;;;;;;10.47;6.07;;;5.60;99.90;;;;;;6244004;23;20178;-71
2022/01/27 10:35:18;;;;;;;9.77;6.07;;;5.60;99.90;;;;;;6244497;23;20166;-71
2022/01/27 10:38:05;;;;;;;11.93;6.40;;;5.60;99.90;;;;;;6244985;23;20605;-71
2022/01/27 10:40:34;;;;;;;11.73;6.90;;;5.70;99.90;;;;;;6244431;23;20159;-71
2022/01/27 10:43:08;;;;;;;11.03;6.47;;;5.70;99.90;;;;;;6244592;23;20625;-71
2022/01/27 10:45:40;;;;;;;11.87;7.10;;;5.80;99.90;;;;;;6244319;23;20170;-71
2022/01/27 10:48:15;;;;;;;11.87;6.70;;;5.80;99.90;;;;;;6244621;23;20225;-70
2022/01/27 10:51:01;;;;;;;12.83;7.17;;;5.80;99.90;;;;;;6244354;23;20605;-71
2022/01/27 10:53:53;;;;;;;13.23;6.93;;;5.80;99.90;;;;;;6244996;23;20163;-71
2022/01/27 10:56:23;;;;;;;13.27;7.10;;;5.90;99.90;;;;;;6240911;23;20236;-71
2022/01/27 10:58:50;;;;;;;12.83;8.00;;;5.90;99.90;;;;;;6246784;23;20242;-71
2022/01/27 11:01:27;;;;;;;11.60;7.27;;;5.90;99.90;;;;;;6234274;23;20237;-71
2022/01/27 11:03:56;;;;;;;12.73;6.80;;;6.00;99.90;;;;;;6246712;23;20169;-71
2022/01/27 11:06:25;;;;;;;12.93;7.93;;;6.00;99.90;;;;;;6246879;23;20711;-71
2022/01/27 11:08:54;;;;;;;14.50;7.87;;;6.10;99.90;;;;;;6246617;23;20245;-71
2022/01/27 11:11:24;;;;;;;12.83;7.20;;;6.10;99.90;;;;;;6246339;23;20217;-77
2022/01/27 11:13:52;;;;;;;11.80;7.53;;;6.10;99.90;;;;;;6245229;23;20174;-77
2022/01/27 11:16:26;;;;;;;12.00;7.00;;;6.10;99.90;;;;;;6245349;23;20166;-77
2022/01/27 11:19:01;;;;;;;11.83;7.33;;;6.10;99.90;;;;;;6244544;23;20174;-77
2022/01/27 11:21:35;;;;;;;10.53;6.20;;;6.20;99.90;;;;;;6244648;23;20599;-77
2022/01/27 11:24:14;;;;;;;11.27;6.50;;;6.20;99.90;;;;;;6244222;23;20178;-77
2022/01/27 11:26:43;;;;;;;11.97;6.40;;;6.20;99.90;;;;;;6244198;23;20178;-77
2022/01/27 11:29:11;;;;;;;11.57;6.93;;;6.30;99.90;;;;;;6243126;23;20182;-77
2022/01/27 11:31:53;;;;;;;9.77;6.30;;;6.30;99.90;;;;;;6245202;23;20159;-77
2022/01/27 11:34:21;;;;;;;13.10;6.93;;;6.30;99.90;;;;;;6244930;23;20155;-77
2022/01/27 11:37:03;;;;;;;11.37;7.47;;;6.30;99.90;;;;;;6244195;23;20240;-77
2022/01/27 11:39:51;;;;;;;12.87;7.23;;;6.30;99.90;;;;;;6244074;23;20578;-77
2022/01/27 11:42:43;;;;;;;13.63;7.73;;;6.30;99.90;;;;;;6242218;23;20183;-77
2022/01/27 11:45:28;;;;;;;12.47;7.97;;;6.40;99.90;;;;;;6243485;23;20159;-77
2022/01/27 11:47:57;;;;;;;14.07;7.40;;;6.40;99.90;;;;;;6245141;23;20187;-77
2022/01/27 11:50:33;;;;;;;11.60;7.80;;;6.30;99.90;;;;;;6243542;23;20170;-77
2022/01/27 11:53:02;;;;;;;14.03;8.00;;;6.30;99.90;;;;;;6243345;23;20170;-77
2022/01/27 11:55:46;;;;;;;12.03;8.03;;;6.30;99.90;;;;;;6244525;23;20193;-77
2022/01/27 11:58:22;;;;;;;12.73;8.20;;;6.30;99.90;;;;;;6244582;23;20186;-77
2022/01/27 12:01:07;;;;;;;13.80;7.63;;;6.30;99.90;;;;;;6243233;23;20181;-77
2022/01/27 12:03:34;;;;;;;12.70;7.50;;;6.30;99.90;;;;;;6244528;23;20182;-77
2022/01/27 12:06:20;;;;;;;13.57;7.77;;;6.30;99.90;;;;;;6244004;23;20213;-77
2022/01/27 12:08:48;;;;;;;10.50;6.73;;;6.30;99.90;;;;;;6245361;23;20159;-77
2022/01/27 12:11:43;;;;;;;9.07;6.63;;;6.30;99.90;;;;;;6244649;23;20205;-77
2022/01/27 12:14:10;;;;;;;11.20;6.37;;;6.30;99.90;;;;;;6231302;23;20186;-77
2022/01/27 12:16:53;;;;;;;11.13;7.00;;;6.40;99.90;;;;;;6245339;23;20237;-78
2022/01/27 12:19:21;;;;;;;9.03;6.00;;;6.40;99.90;;;;;;6244743;23;20261;-75
2022/01/27 12:22:01;;;;;;;10.67;6.70;;;6.40;99.90;;;;;;6242592;23;20162;-77
2022/01/27 12:24:30;;;;;;;12.83;7.20;;;6.40;99.90;;;;;;6243676;23;20178;-77
2022/01/27 12:27:00;;;;;;;11.27;6.33;;;6.50;99.90;;;;;;6244553;23;20491;-77
2022/01/27 12:29:33;;;;;;;11.93;6.83;;;6.50;99.90;;;;;;6243294;23;20174;-77
2022/01/27 12:32:01;;;;;;;9.53;6.47;;;6.50;99.90;;;;;;6242701;23;20166;-77
2022/01/27 12:34:29;;;;;;;12.27;6.73;;;6.50;99.90;;;;;;6244125;23;20393;-77
2022/01/27 12:37:06;;;;;;;11.87;7.63;;;6.60;99.90;;;;;;6243519;23;20159;-77
2022/01/27 12:39:36;;;;;;;11.77;7.97;;;6.70;99.90;;;;;;6243322;23;20458;-77
2022/01/27 12:42:05;;;;;;;9.93;6.03;;;6.80;99.90;;;;;;6242975;23;20155;-77
2022/01/27 12:44:33;;;;;;;10.10;6.50;;;6.80;99.90;;;;;;6242570;23;20216;-77
2022/01/27 12:47:10;;;;;;;12.57;7.00;;;6.90;99.90;;;;;;6243733;23;20194;-77
2022/01/27 12:49:43;;;;;;;13.10;7.83;;;7.00;99.90;;;;;;6243939;23;20200;-77
2022/01/27 12:52:15;;;;;;;10.87;6.40;;;7.00;99.90;;;;;;6244059;23;20228;-77
2022/01/27 12:54:43;;;;;;;11.83;6.60;;;7.00;99.90;;;;;;6243617;23;20178;-77
2022/01/27 12:57:10;;;;;;;14.70;8.10;;;7.10;99.90;;;;;;6243866;23;20266;-77
2022/01/27 12:59:41;;;;;;;14.87;8.03;;;7.20;99.90;;;;;;6243959;23;20533;-77
2022/01/27 13:02:09;;;;;;;14.77;8.00;;;7.30;99.90;;;;;;6244442;23;20178;-76
2022/01/27 13:04:37;;;;;;;12.33;7.23;;;7.30;99.90;;;;;;6243607;23;20205;-77
2022/01/27 13:07:06;;;;;;;13.40;8.13;;;7.30;99.90;;;;;;6244198;23;20586;-77
2022/01/27 13:09:35;;;;;;;12.00;7.40;;;7.40;99.90;;;;;;6243950;23;20224;-77
2022/01/27 13:12:19;;;;;;;14.67;7.50;;;7.50;99.90;;;;;;6243739;23;20193;-77
2022/01/27 13:15:00;;;;;;;16.60;8.17;;;7.50;99.90;;;;;;6243399;23;20178;-77
2022/01/27 13:17:34;;;;;;;15.10;7.70;;;7.50;99.90;;;;;;6243269;23;20179;-77
2022/01/27 13:20:21;;;;;;;13.90;7.30;;;7.50;99.90;;;;;;6243756;23;20517;-77
2022/01/27 13:22:51;;;;;;;14.47;8.00;;;7.50;99.90;;;;;;6243561;23;20248;-77
2022/01/27 13:25:22;;;;;;;14.40;7.70;;;7.50;99.90;;;;;;6243331;23;20202;-77
2022/01/27 13:28:10;;;;;;;14.90;8.17;;;7.50;99.90;;;;;;6243762;23;20209;-77
2022/01/27 13:30:38;;;;;;;13.50;7.63;;;7.50;99.90;;;;;;6243474;23;20154;-77